Unai, Brazil
Current Conditions -  °F | °C
As of 5:00 AM on Sunday 26 Oct 2014 (Local Time) from SBBR Reporting Station
Broken Clouds Broken Clouds  
Wind Chill: 68°   Ceiling: 600
Heat Index: 68°   Visibility: 5mi
Dew Point: 63°   Wind: 2mph
Humidity: 83%   Direction: 130°SE
Pressure: 30"   Gusts: NA
Location:  16.36°S, 46.9°W
Report Text: SBBR 260700Z 13002KT 8000 BKN006 20/17 Q1016
Loading
Personal Weather Stations






























Interactive Weather Map
Tropical Storm Tracking
New forecast layout! Learn more

10-Day Weather Forecast

Advertisements
Track Severe Weather on mobile